Time;durP1;ratioP1;P1;durP2;ratioP2;P2;SDS_P1;SDS_P2;PMS_P1;PMS_P2;Temp;Humidity;BMP_temperature;BMP_pressure;BME280_temperature;BME280_humidity;BME280_pressure;Samples;Min_cycle;Max_cycle;Signal;HPM_P1;HPM_P2
2022/01/01 00:00:31;;;;;;;31.70;28.50;;;12.40;54.50;;;;;;6334610;28;20278;-56
2022/01/01 00:03:34;;;;;;;27.03;24.33;;;12.30;53.40;;;;;;6327530;28;20228;-58
2022/01/01 00:06:43;;;;;;;34.27;30.57;;;12.30;53.40;;;;;;6329107;28;20263;-56
2022/01/01 00:09:47;;;;;;;43.37;37.80;;;12.30;51.90;;;;;;6334715;27;20264;-56
2022/01/01 00:12:50;;;;;;;32.10;28.67;;;12.30;51.80;;;;;;6330392;28;20736;-57
2022/01/01 00:15:52;;;;;;;25.13;22.47;;;12.30;51.80;;;;;;6334737;28;20319;-56
2022/01/01 00:18:55;;;;;;;22.00;19.70;;;12.30;51.50;;;;;;6341527;27;20385;-56
2022/01/01 00:21:58;;;;;;;20.03;18.13;;;12.30;50.30;;;;;;6333755;27;20227;-56
2022/01/01 00:25:02;;;;;;;21.77;19.57;;;12.30;50.30;;;;;;6337160;27;20306;-56
2022/01/01 00:28:05;;;;;;;24.47;21.87;;;12.40;49.20;;;;;;6333085;28;20317;-57
2022/01/01 00:31:08;;;;;;;23.63;21.13;;;12.40;49.20;;;;;;6335138;27;20283;-57
2022/01/01 00:34:11;;;;;;;22.97;20.70;;;12.40;48.10;;;;;;6331314;28;20663;-56
2022/01/01 00:37:14;;;;;;;22.40;20.13;;;12.30;48.30;;;;;;6334602;27;20658;-56
2022/01/01 00:40:19;;;;;;;22.60;20.30;;;12.40;49.20;;;;;;6328448;27;20258;-56
2022/01/01 00:43:22;;;;;;;21.83;19.63;;;12.40;48.90;;;;;;6332737;27;20710;-55
2022/01/01 00:46:25;;;;;;;19.43;17.47;;;12.40;49.20;;;;;;6334500;28;20776;-56
2022/01/01 00:49:28;;;;;;;20.17;18.03;;;12.40;49.20;;;;;;6341093;27;20262;-56
2022/01/01 00:52:31;;;;;;;20.77;18.57;;;12.40;49.10;;;;;;6333925;27;20235;-56
2022/01/01 00:55:36;;;;;;;20.50;18.37;;;12.40;48.60;;;;;;6331304;27;20373;-56
2022/01/01 00:58:39;;;;;;;19.40;17.40;;;12.40;48.50;;;;;;6335122;27;20240;-57
2022/01/01 01:01:42;;;;;;;20.00;16.73;;;12.40;48.60;;;;;;6333099;27;20318;-57
2022/01/01 01:04:45;;;;;;;18.40;16.23;;;12.40;48.50;;;;;;6326448;27;20253;-56
2022/01/01 01:07:48;;;;;;;17.73;16.10;;;12.40;48.50;;;;;;6334278;28;20231;-57
2022/01/01 01:10:52;;;;;;;18.70;16.87;;;12.40;48.20;;;;;;6329404;28;20233;-56
2022/01/01 01:13:58;;;;;;;19.07;17.20;;;12.40;47.90;;;;;;6332840;28;20236;-56
2022/01/01 01:17:01;;;;;;;19.07;17.07;;;12.40;49.10;;;;;;6334925;27;20239;-56
2022/01/01 01:20:05;;;;;;;17.93;16.17;;;12.40;50.20;;;;;;6343540;27;20250;-56
2022/01/01 01:23:08;;;;;;;17.10;15.50;;;12.40;50.40;;;;;;6329243;28;20323;-56
2022/01/01 01:26:12;;;;;;;18.00;15.87;;;12.40;50.40;;;;;;6337962;27;20397;-56
2022/01/01 01:29:15;;;;;;;17.23;15.50;;;12.40;51.10;;;;;;6332438;27;20315;-56
2022/01/01 01:32:18;;;;;;;17.43;15.87;;;12.40;51.60;;;;;;6335191;27;20238;-56
2022/01/01 01:35:21;;;;;;;18.40;16.60;;;12.40;52.30;;;;;;6330247;27;20277;-57
2022/01/01 01:38:23;;;;;;;17.33;15.63;;;12.30;51.70;;;;;;6332757;28;20236;-57
2022/01/01 01:41:30;;;;;;;17.90;16.03;;;12.30;52.10;;;;;;6331658;27;20241;-56
2022/01/01 01:44:41;;;;;;;15.77;14.43;;;12.40;51.50;;;;;;6328233;28;20230;-54
2022/01/01 01:47:44;;;;;;;17.27;14.87;;;12.40;51.20;;;;;;6330997;28;20322;-58
2022/01/01 01:50:47;;;;;;;17.97;15.20;;;12.30;51.70;;;;;;6332687;27;20696;-57
2022/01/01 01:53:50;;;;;;;16.10;14.37;;;12.30;52.30;;;;;;6334425;28;20311;-57
2022/01/01 01:56:54;;;;;;;16.67;14.93;;;12.30;52.90;;;;;;6324555;28;20631;-57
2022/01/01 01:59:57;;;;;;;18.10;16.30;;;12.40;52.80;;;;;;6334411;28;20300;-57
2022/01/01 02:02:59;;;;;;;17.63;15.80;;;12.40;53.10;;;;;;6333940;28;20372;-56
2022/01/01 02:06:05;;;;;;;17.20;15.50;;;12.30;53.00;;;;;;6327938;28;20255;-55
2022/01/01 02:09:10;;;;;;;18.17;16.33;;;12.30;54.90;;;;;;6333415;28;20231;-57
2022/01/01 02:12:15;;;;;;;16.33;14.63;;;12.20;54.80;;;;;;6333586;28;20440;-57
2022/01/01 02:15:38;;;;;;;17.03;15.33;;;12.20;54.90;;;;;;6329956;28;20762;-57
2022/01/01 02:18:43;;;;;;;16.20;14.40;;;12.20;54.90;;;;;;6334126;28;20235;-57
2022/01/01 02:21:47;;;;;;;16.13;14.60;;;12.20;54.90;;;;;;6328426;28;20235;-59
2022/01/01 02:24:50;;;;;;;15.93;14.27;;;12.20;54.80;;;;;;6330697;27;20227;-57
2022/01/01 02:27:53;;;;;;;15.80;14.07;;;12.20;54.80;;;;;;6333240;28;20316;-58
2022/01/01 02:30:57;;;;;;;15.20;13.70;;;12.20;54.00;;;;;;6332861;28;20327;-56
2022/01/01 02:34:04;;;;;;;16.30;13.87;;;12.20;54.80;;;;;;6332270;28;20236;-56
2022/01/01 02:37:09;;;;;;;17.60;14.93;;;12.20;53.20;;;;;;6321948;28;20645;-56
2022/01/01 02:40:13;;;;;;;18.00;14.93;;;12.20;53.40;;;;;;6324164;28;20711;-55
2022/01/01 02:43:17;;;;;;;17.30;15.60;;;12.20;53.70;;;;;;6327864;28;20369;-56
2022/01/01 02:46:20;;;;;;;18.50;15.30;;;12.20;54.10;;;;;;6325353;28;20232;-56
2022/01/01 02:49:24;;;;;;;16.47;14.77;;;12.20;53.60;;;;;;6343634;27;20232;-55
2022/01/01 02:52:28;;;;;;;22.27;17.20;;;12.20;53.20;;;;;;6333031;28;20231;-56
2022/01/01 02:55:31;;;;;;;21.00;17.27;;;12.20;52.90;;;;;;6332331;27;20570;-56
2022/01/01 02:58:33;;;;;;;16.63;14.93;;;12.20;53.30;;;;;;6334181;28;20297;-57
2022/01/01 03:01:36;;;;;;;19.70;16.10;;;12.20;53.00;;;;;;6334337;28;20276;-57
2022/01/01 03:04:39;;;;;;;16.53;14.47;;;12.30;52.30;;;;;;6326810;28;20426;-57
2022/01/01 03:07:43;;;;;;;16.40;14.27;;;12.20;52.50;;;;;;6330013;28;20342;-57
2022/01/01 03:10:47;;;;;;;16.77;15.03;;;12.20;52.60;;;;;;6337575;27;20235;-55
2022/01/01 03:13:50;;;;;;;18.53;14.90;;;12.20;52.60;;;;;;6337634;28;20323;-56
2022/01/01 03:16:53;;;;;;;17.00;14.53;;;12.20;52.10;;;;;;6338680;27;20281;-57
2022/01/01 03:19:55;;;;;;;18.07;14.33;;;12.10;51.20;;;;;;6344146;27;20846;-57
2022/01/01 03:22:59;;;;;;;16.27;14.43;;;12.10;51.70;;;;;;6336067;27;20611;-57
2022/01/01 03:26:02;;;;;;;14.90;13.30;;;12.20;51.10;;;;;;6335544;27;20323;-56
2022/01/01 03:29:05;;;;;;;18.90;14.77;;;12.10;50.40;;;;;;6338424;28;20278;-56
2022/01/01 03:32:08;;;;;;;14.57;13.07;;;12.20;50.30;;;;;;6337873;28;20284;-56
2022/01/01 03:35:11;;;;;;;18.10;13.17;;;12.20;48.90;;;;;;6335321;27;20232;-56
2022/01/01 03:38:16;;;;;;;16.37;12.73;;;12.20;48.80;;;;;;6333870;27;20773;-56
2022/01/01 03:41:19;;;;;;;14.63;12.40;;;12.20;48.30;;;;;;6332885;28;20269;-56
2022/01/01 03:44:22;;;;;;;12.93;11.63;;;12.20;48.00;;;;;;6334013;28;20308;-56
2022/01/01 03:47:25;;;;;;;14.80;11.40;;;12.20;46.90;;;;;;6341167;27;20343;-57
2022/01/01 03:50:28;;;;;;;12.93;11.10;;;12.20;45.50;;;;;;6345723;27;20236;-56
2022/01/01 03:53:32;;;;;;;12.60;11.33;;;12.20;44.90;;;;;;6336224;27;20297;-56
2022/01/01 03:56:37;;;;;;;12.80;11.07;;;12.20;43.40;;;;;;6329174;27;20266;-55
2022/01/01 03:59:39;;;;;;;11.97;10.67;;;12.20;43.50;;;;;;6337014;27;20239;-55
2022/01/01 04:02:42;;;;;;;17.63;10.97;;;12.20;43.60;;;;;;6336228;27;20303;-56
2022/01/01 04:05:46;;;;;;;11.47;10.43;;;12.20;43.10;;;;;;6334089;27;20277;-55
2022/01/01 04:08:50;;;;;;;14.83;10.87;;;12.20;41.80;;;;;;6332017;27;20329;-56
2022/01/01 04:11:53;;;;;;;12.80;10.77;;;12.30;42.00;;;;;;6335568;27;20236;-55
2022/01/01 04:14:57;;;;;;;12.20;11.07;;;12.30;40.80;;;;;;6336519;27;20332;-56
2022/01/01 04:18:02;;;;;;;14.33;11.37;;;12.20;40.80;;;;;;6339397;27;20350;-55
2022/01/01 04:21:07;;;;;;;13.83;12.00;;;12.30;39.90;;;;;;6337096;27;20236;-55
2022/01/01 04:24:11;;;;;;;15.60;13.03;;;12.30;39.60;;;;;;6335924;27;20784;-56
2022/01/01 04:27:13;;;;;;;14.17;12.00;;;12.30;40.20;;;;;;6338233;27;20331;-56
2022/01/01 04:30:17;;;;;;;17.37;12.37;;;12.20;39.70;;;;;;6332756;28;20367;-56
2022/01/01 04:33:19;;;;;;;18.77;12.57;;;12.30;40.40;;;;;;6311776;28;20638;-56
2022/01/01 04:36:23;;;;;;;14.00;12.23;;;12.20;41.30;;;;;;6333572;27;20235;-56
2022/01/01 04:39:27;;;;;;;17.37;12.40;;;12.20;41.10;;;;;;6328445;27;20346;-56
2022/01/01 04:42:30;;;;;;;13.83;11.93;;;12.30;40.50;;;;;;6332927;27;20319;-56
2022/01/01 04:45:33;;;;;;;13.97;12.57;;;12.30;39.90;;;;;;6327598;28;20638;-56
2022/01/01 04:48:37;;;;;;;13.63;12.20;;;12.20;38.20;;;;;;6334314;28;20316;-56
2022/01/01 04:51:40;;;;;;;16.70;11.87;;;12.30;37.40;;;;;;6330995;27;20334;-57
2022/01/01 04:54:44;;;;;;;15.67;12.63;;;12.20;38.00;;;;;;6322185;28;20240;-55
2022/01/01 04:57:47;;;;;;;15.00;12.70;;;12.20;38.50;;;;;;6326015;28;20272;-56
2022/01/01 05:00:50;;;;;;;15.90;12.93;;;12.20;38.50;;;;;;6330512;27;20445;-57
2022/01/01 05:03:53;;;;;;;15.70;12.93;;;12.20;38.60;;;;;;6331881;27;20470;-57
2022/01/01 05:06:58;;;;;;;15.43;13.07;;;12.30;37.80;;;;;;6326958;28;20236;-55
2022/01/01 05:10:02;;;;;;;14.63;12.80;;;12.30;38.20;;;;;;6333097;28;20308;-55
2022/01/01 05:13:05;;;;;;;16.20;14.03;;;12.20;38.50;;;;;;6331278;27;20826;-56
2022/01/01 05:16:10;;;;;;;17.10;12.73;;;12.20;37.50;;;;;;6325447;28;20220;-57
2022/01/01 05:19:14;;;;;;;17.53;14.37;;;12.30;36.00;;;;;;6332080;27;20228;-56
2022/01/01 05:22:16;;;;;;;18.30;12.70;;;12.30;36.00;;;;;;6333785;27;20253;-57
2022/01/01 05:25:20;;;;;;;23.63;15.07;;;12.30;38.10;;;;;;6329993;28;20242;-56
2022/01/01 05:28:23;;;;;;;21.20;14.33;;;12.20;38.70;;;;;;6331741;28;20369;-56
2022/01/01 05:31:27;;;;;;;21.57;15.13;;;12.20;39.50;;;;;;6333775;28;20243;-56
2022/01/01 05:34:30;;;;;;;26.17;16.77;;;12.20;39.70;;;;;;6327334;28;20847;-56
2022/01/01 05:37:33;;;;;;;24.00;14.97;;;12.20;40.60;;;;;;6330598;28;20262;-57
2022/01/01 05:40:37;;;;;;;22.10;15.10;;;12.20;40.70;;;;;;6326592;28;20742;-56
2022/01/01 05:43:40;;;;;;;19.70;14.77;;;12.20;40.00;;;;;;6326771;27;20232;-56
2022/01/01 05:46:43;;;;;;;22.60;15.50;;;12.20;39.50;;;;;;6324568;28;20325;-58
2022/01/01 05:49:46;;;;;;;21.57;15.20;;;12.20;39.60;;;;;;6332112;28;20294;-56
2022/01/01 05:52:48;;;;;;;17.67;14.33;;;12.20;39.10;;;;;;6328494;28;20446;-57
2022/01/01 05:55:52;;;;;;;19.97;14.33;;;12.20;38.70;;;;;;6321113;28;20237;-56
2022/01/01 05:58:55;;;;;;;20.87;15.40;;;12.20;38.50;;;;;;6333451;27;20762;-56
2022/01/01 06:01:58;;;;;;;18.33;15.23;;;12.20;38.00;;;;;;6333186;28;20250;-57
2022/01/01 06:05:01;;;;;;;21.27;14.53;;;12.20;37.70;;;;;;6332145;28;20602;-56
2022/01/01 06:08:04;;;;;;;17.53;14.60;;;12.20;37.60;;;;;;6320877;28;20759;-55
2022/01/01 06:11:08;;;;;;;22.80;15.60;;;12.20;37.70;;;;;;6329669;27;20254;-55
2022/01/01 06:14:11;;;;;;;20.17;15.50;;;12.20;36.50;;;;;;6332772;28;20228;-56
2022/01/01 06:17:14;;;;;;;19.97;15.03;;;12.20;35.90;;;;;;6336182;28;20317;-56
2022/01/01 06:20:17;;;;;;;21.77;15.10;;;12.20;35.90;;;;;;6331348;28;20398;-56
2022/01/01 06:23:39;;;;;;;20.47;14.63;;;12.20;35.90;;;;;;6320891;28;20273;-55
2022/01/01 06:26:43;;;;;;;24.50;15.13;;;12.20;37.40;;;;;;6330216;28;20243;-55
2022/01/01 06:29:46;;;;;;;24.47;14.97;;;12.20;35.50;;;;;;6329615;28;20323;-56
2022/01/01 06:32:51;;;;;;;20.93;15.33;;;12.30;36.00;;;;;;6329485;27;20362;-56
2022/01/01 06:35:55;;;;;;;19.80;15.33;;;12.20;34.70;;;;;;6327306;28;20236;-53
2022/01/01 06:38:58;;;;;;;27.60;15.47;;;12.20;34.80;;;;;;6324720;28;20547;-57
2022/01/01 06:42:03;;;;;;;19.17;14.03;;;12.20;33.30;;;;;;6325233;28;20236;-56
2022/01/01 06:45:06;;;;;;;25.83;16.20;;;12.20;33.30;;;;;;6329924;27;20251;-56
2022/01/01 06:48:09;;;;;;;20.67;16.07;;;12.20;32.90;;;;;;6326883;27;20311;-57
2022/01/01 06:51:12;;;;;;;21.83;15.20;;;12.30;33.00;;;;;;6328338;27;20314;-58
2022/01/01 06:54:15;;;;;;;23.97;15.83;;;12.20;33.10;;;;;;6329862;28;20323;-58
2022/01/01 06:57:19;;;;;;;19.67;14.17;;;12.20;32.70;;;;;;6335485;28;20324;-58
2022/01/01 07:00:22;;;;;;;22.63;15.93;;;12.20;31.30;;;;;;6332990;28;20392;-57
2022/01/01 07:03:24;;;;;;;18.10;15.37;;;12.20;32.10;;;;;;6334079;27;20595;-58
2022/01/01 07:06:27;;;;;;;22.03;15.57;;;12.20;32.00;;;;;;6329878;27;20748;-58
2022/01/01 07:09:30;;;;;;;24.10;15.80;;;12.20;32.10;;;;;;6332600;27;20720;-57
2022/01/01 07:12:34;;;;;;;20.23;14.60;;;12.20;31.60;;;;;;6335122;28;20315;-58
2022/01/01 07:15:37;;;;;;;21.40;15.07;;;12.20;31.00;;;;;;6336857;27;20318;-58
2022/01/01 07:18:40;;;;;;;28.13;15.93;;;12.20;31.00;;;;;;6332559;28;20342;-55
2022/01/01 07:21:42;;;;;;;23.80;15.60;;;12.20;30.90;;;;;;6332109;27;20232;-58
2022/01/01 07:24:45;;;;;;;19.67;14.67;;;12.20;30.20;;;;;;6328682;27;20228;-58
2022/01/01 07:27:49;;;;;;;19.03;14.77;;;12.30;29.20;;;;;;6330454;28;20275;-58
2022/01/01 07:30:52;;;;;;;22.47;15.30;;;12.30;29.20;;;;;;6334875;27;20254;-57
2022/01/01 07:33:54;;;;;;;26.87;15.37;;;12.30;29.20;;;;;;6325490;27;20236;-58
2022/01/01 07:36:57;;;;;;;24.10;15.07;;;12.30;29.20;;;;;;6327810;28;20240;-58
2022/01/01 07:40:00;;;;;;;23.43;15.77;;;12.20;29.60;;;;;;6326658;28;20728;-57
2022/01/01 07:43:10;;;;;;;25.67;16.17;;;12.20;29.40;;;;;;6332810;28;20726;-58
2022/01/01 07:46:13;;;;;;;25.23;15.77;;;12.20;29.40;;;;;;6330923;28;20344;-58
2022/01/01 07:49:16;;;;;;;21.60;15.83;;;12.20;29.70;;;;;;6330840;27;20267;-58
2022/01/01 07:52:18;;;;;;;24.90;15.00;;;12.30;29.50;;;;;;6326718;28;20229;-58
2022/01/01 07:55:21;;;;;;;26.33;16.00;;;12.30;29.40;;;;;;6330193;27;20259;-62
2022/01/01 07:58:25;;;;;;;22.30;14.60;;;12.20;29.50;;;;;;6332527;28;20235;-57
2022/01/01 08:01:28;;;;;;;20.37;15.57;;;12.20;29.60;;;;;;6333643;28;20246;-57
2022/01/01 08:04:31;;;;;;;20.73;15.53;;;12.20;30.00;;;;;;6340478;27;20246;-57
2022/01/01 08:07:34;;;;;;;25.67;15.57;;;12.30;28.50;;;;;;6333918;28;20280;-58
2022/01/01 08:10:58;;;;;;;22.50;15.13;;;12.30;28.30;;;;;;6332095;27;20259;-59
2022/01/01 08:14:02;;;;;;;21.70;15.60;;;12.30;29.10;;;;;;6323071;28;20371;-56
2022/01/01 08:17:06;;;;;;;25.83;15.97;;;12.30;28.60;;;;;;6339890;27;20364;-56
2022/01/01 08:20:10;;;;;;;23.97;15.90;;;12.30;29.10;;;;;;6335156;27;20715;-58
2022/01/01 08:23:14;;;;;;;22.60;15.43;;;12.20;29.50;;;;;;6329300;28;20228;-58
2022/01/01 08:26:17;;;;;;;23.73;16.13;;;12.30;28.30;;;;;;6333270;27;20314;-58
2022/01/01 08:29:21;;;;;;;21.63;15.13;;;12.30;28.60;;;;;;6328851;28;20307;-58
2022/01/01 08:32:23;;;;;;;20.63;14.57;;;12.30;28.50;;;;;;6332328;28;20241;-57
2022/01/01 08:35:26;;;;;;;23.87;16.27;;;12.30;27.90;;;;;;6327424;28;20308;-58
2022/01/01 08:38:29;;;;;;;22.90;14.87;;;12.30;28.00;;;;;;6328875;27;20628;-58
2022/01/01 08:41:32;;;;;;;23.33;15.30;;;12.30;27.10;;;;;;6327091;28;20636;-58
2022/01/01 08:44:36;;;;;;;23.50;15.90;;;12.40;27.90;;;;;;6326829;28;20224;-58
2022/01/01 08:47:38;;;;;;;24.87;16.43;;;12.40;27.10;;;;;;6334751;28;20723;-58
2022/01/01 08:50:41;;;;;;;21.03;15.20;;;12.40;25.80;;;;;;6333176;27;20231;-58
2022/01/01 08:53:44;;;;;;;22.77;15.47;;;12.40;26.00;;;;;;6328197;28;20264;-59
2022/01/01 08:56:47;;;;;;;25.97;16.10;;;12.40;25.90;;;;;;6330264;28;20293;-58
2022/01/01 08:59:51;;;;;;;23.63;15.83;;;12.40;25.90;;;;;;6328109;27;20676;-57
2022/01/01 09:02:54;;;;;;;24.33;15.33;;;12.40;26.20;;;;;;6327004;27;20276;-57
2022/01/01 09:05:59;;;;;;;21.13;15.33;;;12.40;24.90;;;;;;6331343;28;20590;-57
2022/01/01 09:09:10;;;;;;;19.50;14.73;;;12.40;25.10;;;;;;6332163;27;20224;-57
2022/01/01 09:12:13;;;;;;;22.10;15.07;;;12.50;25.00;;;;;;6321176;27;20220;-57
2022/01/01 09:15:17;;;;;;;23.40;15.60;;;12.50;24.20;;;;;;6328304;28;20232;-57
2022/01/01 09:18:19;;;;;;;27.23;16.00;;;12.50;23.30;;;;;;6327834;28;20739;-57
2022/01/01 09:21:22;;;;;;;23.67;15.63;;;12.50;23.30;;;;;;6326980;27;20285;-57
2022/01/01 09:24:25;;;;;;;22.90;14.77;;;12.60;23.30;;;;;;6331009;28;20235;-59
2022/01/01 09:27:29;;;;;;;28.27;15.03;;;12.60;22.80;;;;;;6333936;27;20246;-56
2022/01/01 09:30:33;;;;;;;24.33;15.73;;;12.60;22.10;;;;;;6328364;28;20228;-57
2022/01/01 09:33:36;;;;;;;23.80;15.33;;;12.60;22.20;;;;;;6328426;28;20803;-57
2022/01/01 09:36:39;;;;;;;26.60;15.67;;;12.60;21.80;;;;;;6323982;28;20838;-57
2022/01/01 09:39:41;;;;;;;21.03;15.67;;;12.60;21.60;;;;;;6324632;28;20306;-57
2022/01/01 09:42:46;;;;;;;24.03;14.83;;;12.50;21.30;;;;;;6332027;27;20293;-58
2022/01/01 09:45:50;;;;;;;19.70;15.23;;;12.60;21.30;;;;;;6330848;27;20323;-58
2022/01/01 09:48:54;;;;;;;21.17;15.53;;;12.60;21.60;;;;;;6314857;28;20278;-58
2022/01/01 09:51:57;;;;;;;25.90;15.93;;;12.60;21.30;;;;;;6305899;28;20315;-56
2022/01/01 09:54:59;;;;;;;25.20;16.30;;;12.60;20.20;;;;;;6304348;28;20251;-57
2022/01/01 09:58:02;;;;;;;28.63;15.97;;;12.60;20.40;;;;;;6301991;28;20275;-58
2022/01/01 10:01:07;;;;;;;25.03;17.10;;;12.60;20.80;;;;;;6305071;28;20263;-58
2022/01/01 10:04:15;;;;;;;23.03;15.87;;;12.70;20.70;;;;;;6306736;28;20248;-58
2022/01/01 10:07:26;;;;;;;22.83;16.13;;;12.60;21.00;;;;;;6304381;28;20239;-58
2022/01/01 10:10:29;;;;;;;29.00;16.90;;;12.70;19.50;;;;;;6304615;28;20237;-58
2022/01/01 10:13:34;;;;;;;34.13;18.30;;;12.60;20.60;;;;;;6299435;28;20608;-58
2022/01/01 10:16:44;;;;;;;26.17;17.60;;;12.60;20.40;;;;;;6302049;28;20259;-57
2022/01/01 10:19:49;;;;;;;27.53;17.10;;;12.60;20.70;;;;;;6302906;28;20865;-57
2022/01/01 10:22:52;;;;;;;26.77;17.30;;;12.60;21.60;;;;;;6299731;28;20306;-59
2022/01/01 10:29:34;;;;;;;29.73;17.33;;;12.70;22.00;;;;;;6306453;28;20229;-58
2022/01/01 10:32:38;;;;;;;30.53;17.50;;;12.70;21.20;;;;;;6306724;28;20335;-58
2022/01/01 10:35:42;;;;;;;25.63;17.37;;;12.80;21.40;;;;;;6321609;28;20297;-59
2022/01/01 10:38:45;;;;;;;28.97;18.40;;;12.80;19.60;;;;;;6326305;28;20362;-57
2022/01/01 10:41:50;;;;;;;30.97;17.70;;;12.80;20.10;;;;;;6326296;28;20617;-57
2022/01/01 10:44:54;;;;;;;30.47;18.47;;;12.70;20.70;;;;;;6330896;28;20236;-58
2022/01/01 10:48:18;;;;;;;29.53;17.37;;;12.70;21.80;;;;;;6331705;28;20247;-57
2022/01/01 10:51:20;;;;;;;31.80;18.97;;;12.70;22.70;;;;;;6328302;28;20224;-56
2022/01/01 10:54:25;;;;;;;33.47;18.80;;;12.60;22.90;;;;;;6324625;28;20236;-55
2022/01/01 10:57:34;;;;;;;35.37;18.30;;;12.70;23.20;;;;;;6332512;28;20228;-60
2022/01/01 11:00:41;;;;;;;34.87;20.07;;;12.60;23.10;;;;;;6331056;27;20231;-58
2022/01/01 11:03:46;;;;;;;30.40;18.20;;;12.60;23.00;;;;;;6324235;28;20240;-58
2022/01/01 11:06:51;;;;;;;29.47;18.33;;;12.70;23.00;;;;;;6328321;28;20262;-57
2022/01/01 11:09:56;;;;;;;26.13;18.03;;;12.80;21.50;;;;;;6332177;28;20377;-57
2022/01/01 11:13:00;;;;;;;29.27;17.73;;;12.80;20.00;;;;;;6324216;28;20604;-58
2022/01/01 11:16:05;;;;;;;34.53;18.03;;;12.80;19.70;;;;;;6333106;27;20607;-58
2022/01/01 11:19:09;;;;;;;24.00;17.07;;;12.80;18.20;;;;;;6332200;28;20361;-58
2022/01/01 11:22:13;;;;;;;29.27;17.07;;;12.90;17.30;;;;;;6322702;28;20307;-56
2022/01/01 11:25:16;;;;;;;27.40;16.07;;;12.90;17.50;;;;;;6330066;27;20334;-58
2022/01/01 11:28:20;;;;;;;27.77;16.20;;;12.90;16.50;;;;;;6329530;28;20656;-58
2022/01/01 11:31:24;;;;;;;26.67;17.23;;;12.90;16.40;;;;;;6325923;28;20329;-58
2022/01/01 11:34:31;;;;;;;25.13;17.37;;;12.90;15.60;;;;;;6332361;28;20239;-58
2022/01/01 11:37:46;;;;;;;31.93;17.13;;;12.90;15.70;;;;;;6332158;28;20275;-58
2022/01/01 11:40:57;;;;;;;30.50;17.10;;;13.00;14.00;;;;;;6327445;28;20378;-58
2022/01/01 11:44:00;;;;;;;24.93;16.40;;;13.00;14.40;;;;;;6327463;27;20755;-57
2022/01/01 11:47:06;;;;;;;32.07;17.33;;;13.00;14.80;;;;;;6326393;28;20274;-56
2022/01/01 11:50:42;;;;;;;28.90;17.63;;;13.00;14.70;;;;;;6329966;27;20314;-57
2022/01/01 11:54:24;;;;;;;30.97;16.53;;;13.10;13.50;;;;;;6326702;28;20227;-58
2022/01/01 11:57:30;;;;;;;25.30;16.67;;;13.10;12.70;;;;;;6325946;28;20629;-57
2022/01/01 12:00:33;;;;;;;28.63;15.93;;;13.20;12.80;;;;;;6333884;28;20243;-58
2022/01/01 12:03:49;;;;;;;25.13;16.40;;;13.20;11.80;;;;;;6332408;27;20490;-57
2022/01/01 12:06:59;;;;;;;23.30;15.33;;;13.20;10.20;;;;;;6330148;27;20232;-57
2022/01/01 12:10:13;;;;;;;26.83;16.50;;;13.20;10.00;;;;;;6334457;28;20309;-57
2022/01/01 12:13:16;;;;;;;23.10;16.03;;;13.20;10.10;;;;;;6326138;27;20312;-53
2022/01/01 12:16:21;;;;;;;25.37;15.93;;;13.10;10.70;;;;;;6331634;28;20231;-60
2022/01/01 12:19:26;;;;;;;27.50;16.27;;;13.20;10.70;;;;;;6333616;28;20247;-55
2022/01/01 12:22:38;;;;;;;31.40;17.30;;;13.20;10.00;;;;;;6335431;28;20232;-55
2022/01/01 12:25:42;;;;;;;25.00;15.83;;;13.10;10.30;;;;;;6335029;28;20337;-57
2022/01/01 12:28:45;;;;;;;28.37;16.57;;;13.20;10.20;;;;;;6333748;27;20231;-58
2022/01/01 12:31:55;;;;;;;29.90;17.00;;;13.20;10.20;;;;;;6332351;28;20232;-57
2022/01/01 12:35:07;;;;;;;28.37;18.17;;;13.20;10.20;;;;;;6333932;27;20259;-57
2022/01/01 12:38:13;;;;;;;28.37;16.23;;;13.10;10.40;;;;;;6326698;27;20382;-56
2022/01/01 12:41:18;;;;;;;32.87;16.30;;;13.10;11.00;;;;;;6329705;28;20797;-56
2022/01/01 12:44:23;;;;;;;27.20;17.53;;;13.00;10.70;;;;;;6330449;28;20627;-56
2022/01/01 12:47:28;;;;;;;33.30;16.40;;;13.10;10.90;;;;;;6327204;28;20243;-56
2022/01/01 12:50:32;;;;;;;29.00;17.47;;;13.10;11.70;;;;;;6334999;27;20247;-56
2022/01/01 12:53:38;;;;;;;25.93;16.53;;;13.10;11.10;;;;;;6334572;27;20929;-56
2022/01/01 12:56:44;;;;;;;37.83;17.20;;;13.10;11.40;;;;;;6331963;27;20262;-57
2022/01/01 12:59:48;;;;;;;31.00;17.53;;;13.10;11.70;;;;;;6334708;27;20258;-57
2022/01/01 13:02:56;;;;;;;22.87;16.30;;;13.10;10.40;;;;;;6332067;28;20247;-57
2022/01/01 13:06:00;;;;;;;29.70;19.07;;;13.10;10.80;;;;;;6332688;27;20228;-56
2022/01/01 13:09:06;;;;;;;28.07;17.57;;;13.20;10.80;;;;;;6330106;28;20766;-56
2022/01/01 13:12:11;;;;;;;27.30;17.90;;;13.10;11.10;;;;;;6334408;28;20232;-56
2022/01/01 13:15:14;;;;;;;30.17;17.83;;;13.20;11.60;;;;;;6333968;27;20247;-55
2022/01/01 13:18:16;;;;;;;26.60;17.60;;;13.10;11.10;;;;;;6327840;28;20235;-55
2022/01/01 13:21:20;;;;;;;29.73;17.83;;;13.00;11.60;;;;;;6331321;28;20232;-55
2022/01/01 13:24:25;;;;;;;28.67;17.53;;;13.00;12.00;;;;;;6333241;28;20288;-56
2022/01/01 13:27:28;;;;;;;27.07;17.10;;;13.00;11.70;;;;;;6334008;27;20267;-56
2022/01/01 13:30:31;;;;;;;28.60;17.20;;;13.00;11.60;;;;;;6334132;28;20297;-55
2022/01/01 13:33:35;;;;;;;28.33;18.27;;;13.00;11.70;;;;;;6333078;27;20285;-56
2022/01/01 13:36:42;;;;;;;29.57;17.90;;;13.00;12.20;;;;;;6328178;28;20322;-56
2022/01/01 13:39:46;;;;;;;35.00;18.00;;;13.00;12.40;;;;;;6316842;28;20248;-57
2022/01/01 13:42:49;;;;;;;27.47;18.00;;;13.00;11.90;;;;;;6332117;28;20361;-56
2022/01/01 13:46:05;;;;;;;28.70;18.33;;;13.00;11.70;;;;;;6333648;28;20980;-55
2022/01/01 13:49:11;;;;;;;27.80;17.87;;;13.00;11.80;;;;;;6330783;28;20228;-58
2022/01/01 13:52:18;;;;;;;29.27;17.70;;;13.00;12.30;;;;;;6331522;28;20244;-56
2022/01/01 13:55:26;;;;;;;31.90;18.30;;;12.90;12.50;;;;;;6331493;28;20285;-56
2022/01/01 13:58:29;;;;;;;26.53;18.97;;;13.00;11.60;;;;;;6313786;28;20301;-56
2022/01/01 14:01:35;;;;;;;25.57;17.43;;;13.10;11.70;;;;;;6330423;28;20274;-57
2022/01/01 14:04:39;;;;;;;25.13;19.00;;;13.00;11.60;;;;;;6328014;28;20244;-58
2022/01/01 14:07:42;;;;;;;26.67;18.07;;;13.00;11.70;;;;;;6324895;28;20337;-58
2022/01/01 14:10:54;;;;;;;26.27;18.47;;;13.00;11.80;;;;;;6331310;28;20643;-60
2022/01/01 14:14:08;;;;;;;33.43;18.50;;;13.00;12.20;;;;;;6327101;28;20238;-56
2022/01/01 14:17:11;;;;;;;31.67;18.63;;;12.90;12.20;;;;;;6334539;28;20224;-57
2022/01/01 14:20:20;;;;;;;26.87;17.77;;;13.00;12.30;;;;;;6333611;28;20723;-57
2022/01/01 14:23:25;;;;;;;26.77;17.17;;;12.90;12.60;;;;;;6321540;28;20721;-58
2022/01/01 14:26:29;;;;;;;30.73;18.27;;;12.90;13.10;;;;;;6335531;27;20240;-58
2022/01/01 14:29:32;;;;;;;27.60;18.63;;;12.80;13.20;;;;;;6333260;28;20234;-58
2022/01/01 14:32:35;;;;;;;28.63;18.17;;;12.80;13.20;;;;;;6321461;28;20243;-59
2022/01/01 14:35:38;;;;;;;30.07;19.03;;;12.80;13.60;;;;;;6330203;28;20238;-58
2022/01/01 14:38:43;;;;;;;33.17;18.77;;;12.80;13.70;;;;;;6329339;28;20235;-58
2022/01/01 14:41:47;;;;;;;27.03;17.37;;;12.80;13.80;;;;;;6330281;28;20637;-58
2022/01/01 14:44:50;;;;;;;32.53;18.93;;;12.80;13.60;;;;;;6334175;28;20680;-57
2022/01/01 14:47:57;;;;;;;32.33;19.23;;;12.80;13.70;;;;;;6332660;28;20247;-57
2022/01/01 14:51:11;;;;;;;28.13;17.60;;;12.80;13.80;;;;;;6331997;28;20248;-57
2022/01/01 14:54:28;;;;;;;25.33;17.03;;;12.90;12.00;;;;;;6331853;28;20595;-57
2022/01/01 14:57:38;;;;;;;28.33;17.27;;;12.80;12.60;;;;;;6324615;28;20244;-58
2022/01/01 15:00:43;;;;;;;25.93;18.10;;;12.80;12.90;;;;;;6327715;28;20258;-57
2022/01/01 15:03:45;;;;;;;30.07;18.03;;;12.80;13.10;;;;;;6323745;27;20239;-59
2022/01/01 15:06:52;;;;;;;30.83;19.27;;;12.80;12.60;;;;;;6317348;28;20268;-58
2022/01/01 15:09:57;;;;;;;28.30;18.47;;;12.80;13.00;;;;;;6334683;28;20232;-58
2022/01/01 15:13:02;;;;;;;29.27;18.97;;;12.80;13.20;;;;;;6337160;27;20259;-58
2022/01/01 15:16:07;;;;;;;25.93;18.20;;;12.70;13.50;;;;;;6336086;28;20672;-58
2022/01/01 15:19:10;;;;;;;28.27;17.43;;;12.70;13.90;;;;;;6332947;27;20234;-58
2022/01/01 15:22:17;;;;;;;35.13;20.43;;;12.70;13.50;;;;;;6334578;28;20361;-58
2022/01/01 15:25:21;;;;;;;26.93;18.70;;;12.70;14.20;;;;;;6333431;27;20319;-58
2022/01/01 15:28:27;;;;;;;25.87;18.10;;;12.70;14.70;;;;;;6333757;27;20762;-58
2022/01/01 15:31:39;;;;;;;28.60;18.77;;;12.60;14.50;;;;;;6335794;27;20562;-58
2022/01/01 15:34:47;;;;;;;24.87;17.53;;;12.60;14.40;;;;;;6331786;27;20266;-59
2022/01/01 15:37:56;;;;;;;26.20;17.50;;;12.60;14.60;;;;;;6329577;28;20725;-59
2022/01/01 15:41:05;;;;;;;27.40;17.43;;;12.60;15.40;;;;;;6328683;28;20329;-57